createdAt,value
2023-01-28T00:04:43.595Z,98793.69
2023-01-28T00:09:49.333Z,98792.88
2023-01-28T00:14:53.679Z,98781.81
2023-01-28T00:19:58.896Z,98791.97
2023-01-28T00:25:05.751Z,98789.69
2023-01-28T00:30:12.267Z,98785.63
2023-01-28T00:35:17.490Z,98787.38
2023-01-28T00:40:23.265Z,98791.22
2023-01-28T00:45:27.508Z,98790.56
2023-01-28T00:50:32.835Z,98784.47
2023-01-28T00:55:39.175Z,98781.25
2023-01-28T01:00:44.040Z,98786.38
2023-01-28T01:05:49.365Z,98795.50
2023-01-28T01:10:59.443Z,98796.91
2023-01-28T01:16:06.285Z,98795.06
2023-01-28T01:21:13.210Z,98803.94
2023-01-28T01:26:18.830Z,98809.72
2023-01-28T01:31:24.145Z,98810.16
2023-01-28T01:36:29.360Z,98810.34
2023-01-28T01:41:35.243Z,98808.72
2023-01-28T01:46:45.601Z,98800.38
2023-01-28T01:51:55.699Z,98793.16
2023-01-28T01:57:04.010Z,98801.84
2023-01-28T02:02:11.071Z,98805.94
2023-01-28T02:07:19.968Z,98809.44
2023-01-28T02:12:30.261Z,98816.28
2023-01-28T02:17:35.171Z,98820.53
2023-01-28T02:23:27.813Z,98820.53
2023-01-28T02:28:41.921Z,98827.28
2023-01-28T02:33:56.690Z,98821.69
2023-01-28T02:39:04.180Z,98829.19
2023-01-28T02:44:10.050Z,98823.34
2023-01-28T02:49:19.205Z,98825.75
2023-01-28T02:54:38.136Z,98832.88
2023-01-28T02:59:52.094Z,98829.94
2023-01-28T03:05:04.102Z,98820.22
2023-01-28T03:10:16.554Z,98822.25
2023-01-28T03:15:44.503Z,98827.19
2023-01-28T03:21:14.026Z,98825.28
2023-01-28T03:26:42.119Z,98822.59
2023-01-28T03:32:05.608Z,98826.63
2023-01-28T03:37:11.115Z,98828.09
2023-01-28T03:42:23.011Z,98822.88
2023-01-28T03:47:43.325Z,98822.59
2023-01-28T03:52:49.280Z,98826.34
2023-01-28T03:58:05.773Z,98826.53
2023-01-28T04:03:17.163Z,98829.72
2023-01-28T04:08:49.050Z,98838.69
2023-01-28T04:14:29.384Z,98831.56
2023-01-28T04:19:48.787Z,98833.84
2023-01-28T04:24:54.882Z,98839.34
2023-01-28T04:29:59.391Z,98837.59
2023-01-28T04:35:19.211Z,98844.31
2023-01-28T04:40:42.133Z,98847.91
2023-01-28T04:45:50.597Z,98846.88
2023-01-28T04:51:19.288Z,98840.88
2023-01-28T04:56:45.879Z,98836.31
2023-01-28T05:01:51.237Z,98847.91
2023-01-28T05:06:58.704Z,98857.88
2023-01-28T05:12:08.827Z,98854.84
2023-01-28T05:17:15.618Z,98855.59
2023-01-28T05:22:21.240Z,98873.25
2023-01-28T05:27:52.263Z,98874.31
2023-01-28T05:32:57.847Z,98881.78
2023-01-28T05:38:04.800Z,98890.66
2023-01-28T05:43:09.866Z,98897.59
2023-01-28T05:48:22.520Z,98896.44
2023-01-28T05:53:39.910Z,98899.72
2023-01-28T05:58:44.787Z,98898.06
2023-01-28T06:03:49.177Z,98907.38
2023-01-28T06:08:54.939Z,98911.06
2023-01-28T06:14:04.791Z,98908.50
2023-01-28T06:19:20.831Z,98912.13
2023-01-28T06:24:26.667Z,98913.78
2023-01-28T06:29:31.455Z,98917.81
2023-01-28T06:34:35.695Z,98919.53
2023-01-28T06:39:41.387Z,98925.72
2023-01-28T06:44:45.717Z,98925.16
2023-01-28T06:49:49.966Z,98935.28
2023-01-28T06:54:55.409Z,98936.78
2023-01-28T06:59:59.846Z,98951.25
2023-01-28T07:05:04.184Z,98953.88
2023-01-28T07:10:11.908Z,98956.13
2023-01-28T07:15:16.420Z,98964.78
2023-01-28T07:20:22.483Z,98959.66
2023-01-28T07:25:28.138Z,98968.75
2023-01-28T07:30:32.813Z,98964.69
2023-01-28T07:35:37.295Z,98988.06
2023-01-28T07:40:43.205Z,98990.88
2023-01-28T07:45:48.688Z,99000.66
2023-01-28T07:50:53.807Z,98997.25
2023-01-28T07:56:02.847Z,99001.22
2023-01-28T08:01:07.645Z,98997.75
2023-01-28T08:06:11.710Z,98993.34
2023-01-28T08:11:17.396Z,98991.91
2023-01-28T08:16:21.883Z,98989.03
2023-01-28T08:21:26.863Z,98994.66
2023-01-28T08:26:32.679Z,98996.53
2023-01-28T08:31:37.422Z,98987.06
2023-01-28T08:36:41.677Z,98992.66
2023-01-28T08:41:47.507Z,98993.59
2023-01-28T08:46:51.685Z,98992.38
2023-01-28T08:51:56.507Z,99000.66
2023-01-28T08:57:02.336Z,98992.56
2023-01-28T09:02:06.537Z,98999.09
2023-01-28T09:07:10.800Z,99005.56
2023-01-28T09:12:17.162Z,99012.94
2023-01-28T09:17:21.957Z,99013.50
2023-01-28T09:22:26.971Z,99018.78
2023-01-28T09:27:33.214Z,99017.81
2023-01-28T09:32:37.841Z,99024.31
2023-01-28T09:37:42.230Z,99019.13
2023-01-28T09:42:58.716Z,99015.81
2023-01-28T09:48:06.704Z,99025.00
2023-01-28T09:53:19.383Z,99017.38
2023-01-28T09:58:25.389Z,99019.16
2023-01-28T10:03:44.865Z,99011.91
2023-01-28T10:09:16.507Z,99017.22
2023-01-28T10:14:41.772Z,99015.19
2023-01-28T10:19:52.981Z,99010.81
2023-01-28T10:25:06.505Z,99006.94
2023-01-28T10:30:22.349Z,99018.03
2023-01-28T10:35:27.851Z,99007.78
2023-01-28T10:40:32.258Z,99009.59
2023-01-28T10:45:41.738Z,99001.25
2023-01-28T10:50:53.721Z,99004.94
2023-01-28T10:56:01.913Z,99000.41
2023-01-28T11:01:09.169Z,98993.00
2023-01-28T11:06:26.887Z,99002.31
2023-01-28T11:11:31.165Z,99000.69
2023-01-28T11:16:40.499Z,98993.72
2023-01-28T11:21:52.683Z,98990.53
2023-01-28T11:27:00.653Z,98994.44
2023-01-28T11:32:17.721Z,98996.13
2023-01-28T11:37:24.407Z,98991.25
2023-01-28T11:42:28.670Z,98987.59
2023-01-28T11:48:15.468Z,98988.03
2023-01-28T11:53:56.038Z,98982.09
2023-01-28T11:59:19.000Z,98980.75
2023-01-28T12:04:44.846Z,98977.03
2023-01-28T12:09:57.939Z,98981.63
2023-01-28T12:15:51.264Z,98978.31
2023-01-28T12:21:08.305Z,98980.75
2023-01-28T12:26:16.944Z,98976.50
2023-01-28T12:31:47.838Z,98970.47
2023-01-28T12:37:08.023Z,98972.56
2023-01-28T12:42:21.315Z,98983.94
2023-01-28T12:47:32.655Z,98990.25
2023-01-28T12:52:45.561Z,98985.03
2023-01-28T12:57:53.372Z,98988.47
2023-01-28T13:03:11.451Z,98990.34
2023-01-28T13:08:24.505Z,98991.13
2023-01-28T13:13:33.397Z,98997.28
2023-01-28T13:18:46.712Z,98995.69
2023-01-28T13:24:06.215Z,98990.69
2023-01-28T13:29:22.597Z,98997.19
2023-01-28T13:34:37.882Z,98996.03
2023-01-28T13:39:50.555Z,99001.16
2023-01-28T13:44:56.205Z,98999.22
2023-01-28T13:50:04.732Z,99001.41
2023-01-28T13:55:37.458Z,98997.75
2023-01-28T14:01:28.984Z,98999.94
2023-01-28T14:07:04.929Z,99006.53
2023-01-28T14:12:45.873Z,99008.03
2023-01-28T14:17:53.303Z,99018.09
2023-01-28T14:23:04.071Z,99015.44
2023-01-28T14:28:17.588Z,99013.84
2023-01-28T14:33:24.341Z,99011.94
2023-01-28T14:38:30.037Z,99023.22
2023-01-28T14:43:38.243Z,99016.22
2023-01-28T14:48:57.312Z,99008.72
2023-01-28T14:54:32.014Z,99016.41
2023-01-28T14:59:45.038Z,99020.47
2023-01-28T15:04:50.825Z,99021.34
2023-01-28T15:10:02.782Z,99028.91
2023-01-28T15:15:16.295Z,99029.72
2023-01-28T15:20:24.421Z,99036.75
2023-01-28T15:25:31.971Z,99037.31
2023-01-28T15:30:38.031Z,99044.28
2023-01-28T15:35:49.258Z,99039.84
2023-01-28T15:40:59.083Z,99055.63
2023-01-28T15:46:11.070Z,99052.00
2023-01-28T15:51:23.078Z,99050.78
2023-01-28T15:56:31.092Z,99051.34
2023-01-28T16:01:36.927Z,99058.47
2023-01-28T16:06:42.808Z,99064.00
2023-01-28T16:11:47.108Z,99066.66
2023-01-28T16:16:54.771Z,99071.97
2023-01-28T16:21:59.817Z,99082.50
2023-01-28T16:27:08.191Z,99083.06
2023-01-28T16:32:31.876Z,99087.53
2023-01-28T16:37:38.207Z,99082.00
2023-01-28T16:42:46.253Z,99085.22
2023-01-28T16:47:52.431Z,99085.44
2023-01-28T16:52:58.073Z,99089.16
2023-01-28T16:58:02.476Z,99082.41
2023-01-28T17:03:08.514Z,99099.50
2023-01-28T17:08:13.183Z,99092.47
2023-01-28T17:13:17.625Z,99103.56
2023-01-28T17:18:23.482Z,99105.81
2023-01-28T17:23:27.904Z,99098.53
2023-01-28T17:28:32.203Z,99112.59
2023-01-28T17:33:37.814Z,99114.19
2023-01-28T17:38:46.235Z,99110.84
2023-01-28T17:43:55.988Z,99120.31
2023-01-28T17:49:03.382Z,99122.59
2023-01-28T17:54:08.448Z,99115.09
2023-01-28T17:59:16.765Z,99127.81
2023-01-28T18:04:23.303Z,99131.88
2023-01-28T18:09:28.107Z,99123.53
2023-01-28T18:14:32.293Z,99129.06
2023-01-28T18:19:37.947Z,99130.06
2023-01-28T18:24:42.435Z,99136.44
2023-01-28T18:29:47.748Z,99145.50
2023-01-28T18:34:53.606Z,99141.22
2023-01-28T18:39:58.590Z,99150.88
2023-01-28T18:45:03.474Z,99155.28
2023-01-28T18:50:10.806Z,99153.13
2023-01-28T18:55:15.419Z,99153.94
2023-01-28T19:00:20.868Z,99143.09
2023-01-28T19:05:26.482Z,99139.41
2023-01-28T19:10:31.748Z,99147.41
2023-01-28T19:15:36.511Z,99145.34
2023-01-28T19:20:42.837Z,99149.25
2023-01-28T19:25:47.375Z,99147.09
2023-01-28T19:30:51.694Z,99152.06
2023-01-28T19:35:58.991Z,99169.31
2023-01-28T19:41:05.297Z,99179.66
2023-01-28T19:46:14.031Z,99179.59
2023-01-28T19:51:21.641Z,99177.72
2023-01-28T19:56:29.861Z,99175.31
2023-01-28T20:01:35.535Z,99182.59
2023-01-28T20:06:41.332Z,99187.09
2023-01-28T20:11:45.755Z,99186.06
2023-01-28T20:16:50.196Z,99198.28
2023-01-28T20:21:56.030Z,99194.25
2023-01-28T20:27:00.249Z,99207.88
2023-01-28T20:32:15.794Z,99198.38
2023-01-28T20:37:23.704Z,99194.34
2023-01-28T20:42:28.028Z,99195.97
2023-01-28T20:47:32.989Z,99204.72
2023-01-28T20:52:38.510Z,99217.31
2023-01-28T20:57:44.758Z,99210.25
2023-01-28T21:02:49.536Z,99218.59
2023-01-28T21:07:55.127Z,99222.59
2023-01-28T21:12:59.345Z,99226.38
2023-01-28T21:18:04.204Z,99223.44
2023-01-28T21:23:14.663Z,99213.19
2023-01-28T21:28:20.934Z,99216.81
2023-01-28T21:33:25.229Z,99223.88
2023-01-28T21:38:31.217Z,99228.03
2023-01-28T21:43:35.559Z,99225.25
2023-01-28T21:48:40.356Z,99232.56
2023-01-28T21:53:45.969Z,99240.84
2023-01-28T21:59:08.207Z,99227.38
2023-01-28T22:04:12.668Z,99228.13
2023-01-28T22:09:19.359Z,99239.81
2023-01-28T22:14:23.877Z,99248.44
2023-01-28T22:19:27.921Z,99255.53
2023-01-28T22:24:33.860Z,99256.97
2023-01-28T22:29:38.628Z,99249.22
2023-01-28T22:34:43.393Z,99238.13
2023-01-28T22:39:50.080Z,99235.19
2023-01-28T22:44:54.564Z,99229.03
2023-01-28T22:49:59.320Z,99220.66
2023-01-28T22:55:05.780Z,99223.00
2023-01-28T23:00:14.938Z,99218.88
2023-01-28T23:05:19.601Z,99207.03
2023-01-28T23:11:16.167Z,99207.97
2023-01-28T23:16:39.612Z,99208.19
2023-01-28T23:22:01.529Z,99210.31
2023-01-28T23:27:06.375Z,99198.63
2023-01-28T23:32:12.770Z,99193.66
2023-01-28T23:37:17.692Z,99208.28
2023-01-28T23:42:23.744Z,99204.13
2023-01-28T23:47:29.600Z,99212.41
2023-01-28T23:52:34.528Z,99203.34
2023-01-28T23:57:38.854Z,99220.16
